createdAt,value
2023-04-17T00:02:56.539Z,99.90
2023-04-17T00:07:59.977Z,99.90
2023-04-17T00:13:01.858Z,99.90
2023-04-17T00:18:03.810Z,99.90
2023-04-17T00:23:07.329Z,99.90
2023-04-17T00:28:09.269Z,99.90
2023-04-17T00:33:11.098Z,99.90
2023-04-17T00:38:12.935Z,99.90
2023-04-17T00:43:14.803Z,99.90
2023-04-17T00:48:17.644Z,99.90
2023-04-17T00:53:19.604Z,99.90
2023-04-17T00:58:21.924Z,99.90
2023-04-17T01:03:26.091Z,99.90
2023-04-17T01:08:28.152Z,99.90
2023-04-17T01:13:30.001Z,99.90
2023-04-17T01:18:32.161Z,99.90
2023-04-17T01:23:53.045Z,99.90
2023-04-17T01:28:56.643Z,99.90
2023-04-17T01:34:00.578Z,99.90
2023-04-17T01:39:02.447Z,99.90
2023-04-17T01:44:04.367Z,99.90
2023-04-17T01:49:06.281Z,99.90
2023-04-17T01:54:08.188Z,99.90
2023-04-17T01:59:10.759Z,99.90
2023-04-17T02:04:12.917Z,99.90
2023-04-17T02:09:14.896Z,99.90
2023-04-17T02:14:18.244Z,99.90
2023-04-17T02:19:20.160Z,99.90
2023-04-17T02:24:22.002Z,99.90
2023-04-17T02:29:23.822Z,99.90
2023-04-17T02:34:26.314Z,99.90
2023-04-17T02:39:28.134Z,99.90
2023-04-17T02:44:29.949Z,99.90
2023-04-17T02:49:31.881Z,99.90
2023-04-17T02:54:33.759Z,99.90
2023-04-17T02:59:36.700Z,99.90
2023-04-17T03:04:38.803Z,99.90
2023-04-17T03:09:40.624Z,99.90
2023-04-17T03:14:43.273Z,99.90
2023-04-17T03:19:45.112Z,99.90
2023-04-17T03:24:46.965Z,99.90
2023-04-17T03:29:48.795Z,99.90
2023-04-17T03:34:50.639Z,99.90
2023-04-17T03:39:52.460Z,99.90
2023-04-17T03:44:56.485Z,99.90
2023-04-17T03:49:58.372Z,99.90
2023-04-17T03:55:00.233Z,99.90
2023-04-17T04:00:02.168Z,99.90
2023-04-17T04:05:04.313Z,99.90
2023-04-17T04:10:07.007Z,99.90
2023-04-17T04:15:09.415Z,99.90
2023-04-17T04:20:14.080Z,99.90
2023-04-17T04:25:16.217Z,99.90
2023-04-17T04:30:18.218Z,99.90
2023-04-17T04:35:20.103Z,99.90
2023-04-17T04:40:21.942Z,99.90
2023-04-17T04:45:23.867Z,99.90
2023-04-17T04:50:25.828Z,99.90
2023-04-17T04:55:27.697Z,99.90
2023-04-17T05:00:29.527Z,99.90
2023-04-17T05:05:31.480Z,99.90
2023-04-17T05:10:33.366Z,99.90
2023-04-17T05:15:35.298Z,99.90
2023-04-17T05:20:37.891Z,99.90
2023-04-17T05:25:40.585Z,99.90
2023-04-17T05:30:42.444Z,99.90
2023-04-17T05:35:56.108Z,99.90
2023-04-17T05:40:58.303Z,99.90
2023-04-17T05:46:00.321Z,99.90
2023-04-17T05:51:02.437Z,99.90
2023-04-17T05:56:04.578Z,99.90
2023-04-17T06:01:06.506Z,99.90
2023-04-17T06:06:08.721Z,99.90
2023-04-17T06:11:10.574Z,99.90
2023-04-17T06:16:12.605Z,99.90
2023-04-17T06:21:14.929Z,99.90
2023-04-17T06:26:16.773Z,99.90
2023-04-17T06:31:18.739Z,99.90
2023-04-17T06:36:20.766Z,99.90
2023-04-17T06:41:22.681Z,99.90
2023-04-17T06:46:24.538Z,98.90
2023-04-17T06:51:27.758Z,98.50
2023-04-17T06:56:29.653Z,97.40
2023-04-17T07:01:31.602Z,97.00
2023-04-17T07:06:34.598Z,96.30
2023-04-17T07:11:36.486Z,95.70
2023-04-17T07:16:38.416Z,96.20
2023-04-17T07:21:41.033Z,96.40
2023-04-17T07:26:43.363Z,95.60
2023-04-17T07:31:45.798Z,96.90
2023-04-17T07:36:49.768Z,96.70
2023-04-17T07:41:51.624Z,97.00
2023-04-17T07:46:53.533Z,95.50
2023-04-17T07:51:55.593Z,94.70
2023-04-17T07:57:02.652Z,94.20
2023-04-17T08:02:04.754Z,93.40
2023-04-17T08:07:07.238Z,92.60
2023-04-17T08:12:09.157Z,92.90
2023-04-17T08:17:11.164Z,92.70
2023-04-17T08:22:14.247Z,91.90
2023-04-17T08:27:16.418Z,90.80
2023-04-17T08:32:18.288Z,90.20
2023-04-17T08:37:20.354Z,90.20
2023-04-17T08:42:22.832Z,90.20
2023-04-17T08:47:25.328Z,89.30
2023-04-17T08:52:27.295Z,88.10
2023-04-17T08:57:29.157Z,87.80
2023-04-17T09:02:57.502Z,87.00
2023-04-17T09:08:10.417Z,89.60
2023-04-17T09:13:17.424Z,88.10
2023-04-17T09:18:31.067Z,86.50
2023-04-17T09:23:46.394Z,85.50
2023-04-17T09:29:12.204Z,87.40
2023-04-17T09:34:16.313Z,85.20
2023-04-17T09:39:21.067Z,85.60
2023-04-17T09:44:28.134Z,85.00
2023-04-17T09:49:34.044Z,85.00
2023-04-17T09:54:39.223Z,82.60
2023-04-17T09:59:42.712Z,81.90
2023-04-17T10:04:46.029Z,83.40
2023-04-17T10:09:47.858Z,83.80
2023-04-17T10:14:51.848Z,82.50
2023-04-17T10:19:53.835Z,82.70
2023-04-17T10:25:14.038Z,79.50
2023-04-17T10:30:16.300Z,76.20
2023-04-17T10:35:18.259Z,74.20
2023-04-17T10:40:30.693Z,75.50
2023-04-17T10:45:51.911Z,73.90
2023-04-17T10:50:56.210Z,72.40
2023-04-17T10:55:58.162Z,73.80
2023-04-17T11:01:03.890Z,72.10
2023-04-17T11:06:06.878Z,70.60
2023-04-17T11:11:11.925Z,68.00
2023-04-17T11:16:17.422Z,68.70
2023-04-17T11:21:19.397Z,67.20
2023-04-17T11:26:23.608Z,67.30
2023-04-17T11:31:26.497Z,63.00
2023-04-17T11:36:28.406Z,66.80
2023-04-17T11:41:42.610Z,64.10
2023-04-17T11:46:52.542Z,65.90
2023-04-17T11:51:55.619Z,64.30
2023-04-17T11:57:11.267Z,66.30
2023-04-17T12:02:13.325Z,66.00
2023-04-17T12:07:23.963Z,67.80
2023-04-17T12:12:25.791Z,67.20
2023-04-17T12:17:27.691Z,64.60
2023-04-17T12:22:30.409Z,65.20
2023-04-17T12:27:36.555Z,63.90
2023-04-17T12:32:39.692Z,63.40
2023-04-17T12:37:43.228Z,64.20
2023-04-17T12:42:49.303Z,66.90
2023-04-17T12:47:51.796Z,64.60
2023-04-17T12:52:53.678Z,63.00
2023-04-17T12:57:55.572Z,62.90
2023-04-17T13:02:57.617Z,64.20
2023-04-17T13:07:59.741Z,63.90
2023-04-17T13:13:02.504Z,63.30
2023-04-17T13:18:04.635Z,60.70
2023-04-17T13:23:06.568Z,61.00
2023-04-17T13:28:08.809Z,58.90
2023-04-17T13:33:10.684Z,59.10
2023-04-17T13:38:12.497Z,59.40
2023-04-17T13:43:14.359Z,58.70
2023-04-17T13:48:16.291Z,59.70
2023-04-17T13:53:19.466Z,57.90
2023-04-17T13:58:21.345Z,60.70
2023-04-17T14:03:23.286Z,60.30
2023-04-17T14:08:25.942Z,61.10
2023-04-17T14:13:27.779Z,61.50
2023-04-17T14:18:29.966Z,62.10
2023-04-17T14:23:31.801Z,63.30
2023-04-17T14:28:34.015Z,62.90
2023-04-17T14:33:35.850Z,63.40
2023-04-17T14:38:37.729Z,64.30
2023-04-17T14:43:39.556Z,64.20
2023-04-17T14:48:55.026Z,64.30
2023-04-17T14:53:57.862Z,64.70
2023-04-17T14:58:59.765Z,65.00
2023-04-17T15:04:02.182Z,66.00
2023-04-17T15:09:04.224Z,64.40
2023-04-17T15:14:06.095Z,64.40
2023-04-17T15:19:08.009Z,65.60
2023-04-17T15:24:12.056Z,67.60
2023-04-17T15:29:14.678Z,66.50
2023-04-17T15:34:16.711Z,67.00
2023-04-17T15:39:21.163Z,68.60
2023-04-17T15:44:23.007Z,70.30
2023-04-17T15:49:25.132Z,71.00
2023-04-17T15:54:27.627Z,70.40
2023-04-17T15:59:29.552Z,69.80
2023-04-17T16:04:31.537Z,71.20
2023-04-17T16:09:33.419Z,70.10
2023-04-17T16:14:36.274Z,70.60
2023-04-17T16:19:38.153Z,71.70
2023-04-17T16:24:39.992Z,73.60
2023-04-17T16:29:42.055Z,73.90
2023-04-17T16:34:43.971Z,75.50
2023-04-17T16:39:45.938Z,76.10
2023-04-17T16:44:47.959Z,77.10
2023-04-17T16:49:57.708Z,77.80
2023-04-17T16:55:00.193Z,78.40
2023-04-17T17:00:03.528Z,78.30
2023-04-17T17:05:57.436Z,78.60
2023-04-17T17:11:00.836Z,79.00
2023-04-17T17:16:02.919Z,80.00
2023-04-17T17:21:10.675Z,80.90
2023-04-17T17:26:12.600Z,80.80
2023-04-17T17:31:14.875Z,81.00
2023-04-17T17:36:16.786Z,81.20
2023-04-17T17:41:18.622Z,81.30
2023-04-17T17:46:22.171Z,83.70
2023-04-17T17:51:27.552Z,82.30
2023-04-17T17:56:29.455Z,83.40
2023-04-17T18:01:32.417Z,83.80
2023-04-17T18:06:34.490Z,87.20
2023-04-17T18:11:37.102Z,85.00
2023-04-17T18:16:39.188Z,85.30
2023-04-17T18:21:41.060Z,86.00
2023-04-17T18:26:42.907Z,86.80
2023-04-17T18:31:46.127Z,87.50
2023-04-17T18:36:48.041Z,87.90
2023-04-17T18:41:49.867Z,88.80
2023-04-17T18:46:51.771Z,90.00
2023-04-17T18:51:53.642Z,90.20
2023-04-17T18:56:55.490Z,90.80
2023-04-17T19:01:57.485Z,91.00
2023-04-17T19:06:59.571Z,91.30
2023-04-17T19:12:02.800Z,91.30
2023-04-17T19:17:04.724Z,91.60
2023-04-17T19:22:06.662Z,91.90
2023-04-17T19:27:09.192Z,91.90
2023-04-17T19:32:12.200Z,92.10
2023-04-17T19:37:39.991Z,92.20
2023-04-17T19:42:41.832Z,92.20
2023-04-17T19:47:43.753Z,92.40
2023-04-17T19:52:51.169Z,92.50
2023-04-17T19:57:53.113Z,92.50
2023-04-17T20:02:55.173Z,92.70
2023-04-17T20:07:57.097Z,92.80
2023-04-17T20:13:05.872Z,92.90
2023-04-17T20:18:09.576Z,93.10
2023-04-17T20:23:11.545Z,93.40
2023-04-17T20:28:13.436Z,93.60
2023-04-17T20:33:15.575Z,93.70
2023-04-17T20:38:17.491Z,94.10
2023-04-17T20:43:19.394Z,94.00
2023-04-17T20:48:21.543Z,94.20
2023-04-17T20:53:23.401Z,94.50
2023-04-17T20:58:25.407Z,94.90
2023-04-17T21:03:29.659Z,95.10
2023-04-17T21:08:36.133Z,95.80
2023-04-17T21:13:38.033Z,95.80
2023-04-17T21:18:40.208Z,96.10
2023-04-17T21:23:42.029Z,96.40
2023-04-17T21:28:43.906Z,96.60
2023-04-17T21:33:46.799Z,96.60
2023-04-17T21:38:49.078Z,96.40
2023-04-17T21:43:50.898Z,96.40
2023-04-17T21:48:52.744Z,96.50
2023-04-17T21:53:54.655Z,96.50
2023-04-17T21:58:56.656Z,96.70
2023-04-17T22:03:58.534Z,96.50
2023-04-17T22:09:00.430Z,96.50
2023-04-17T22:14:02.487Z,96.60
2023-04-17T22:19:04.369Z,96.50
2023-04-17T22:24:06.574Z,96.50
2023-04-17T22:29:08.398Z,96.30
2023-04-17T22:34:10.404Z,96.50
2023-04-17T22:39:12.290Z,96.50
2023-04-17T22:44:14.430Z,96.70
2023-04-17T22:49:16.480Z,96.60
2023-04-17T22:54:22.746Z,96.70
2023-04-17T22:59:25.351Z,96.90
2023-04-17T23:04:27.291Z,96.80
2023-04-17T23:09:29.152Z,97.00
2023-04-17T23:14:31.002Z,97.10
2023-04-17T23:19:32.890Z,97.00
2023-04-17T23:24:35.306Z,97.10
2023-04-17T23:29:37.180Z,97.30
2023-04-17T23:34:39.398Z,97.40
2023-04-17T23:39:42.653Z,97.50
2023-04-17T23:44:44.573Z,97.80
2023-04-17T23:49:47.459Z,97.90
2023-04-17T23:54:49.294Z,98.10
2023-04-17T23:59:51.119Z,98.20
